sensor_id;sensor_type;location;lat;lon;timestamp;temperature;humidity
20345;DHT22;10330;48.816;9.278;2023-05-27T00:02:07;17.10;99.90
20345;DHT22;10330;48.816;9.278;2023-05-27T00:04:33;17.10;99.90
20345;DHT22;10330;48.816;9.278;2023-05-27T00:06:59;17.10;99.90
20345;DHT22;10330;48.816;9.278;2023-05-27T00:09:26;17.10;99.90
20345;DHT22;10330;48.816;9.278;2023-05-27T00:11:53;17.00;99.90
20345;DHT22;10330;48.816;9.278;2023-05-27T00:14:22;17.10;99.90
20345;DHT22;10330;48.816;9.278;2023-05-27T00:16:49;17.00;99.90
20345;DHT22;10330;48.816;9.278;2023-05-27T00:19:15;17.10;99.90
20345;DHT22;10330;48.816;9.278;2023-05-27T00:21:43;17.10;99.90
20345;DHT22;10330;48.816;9.278;2023-05-27T00:24:10;17.10;99.90
20345;DHT22;10330;48.816;9.278;2023-05-27T00:26:36;17.10;99.90
20345;DHT22;10330;48.816;9.278;2023-05-27T00:29:02;17.10;99.90
20345;DHT22;10330;48.816;9.278;2023-05-27T00:31:28;17.00;99.90
20345;DHT22;10330;48.816;9.278;2023-05-27T00:33:54;17.00;99.90
20345;DHT22;10330;48.816;9.278;2023-05-27T00:36:21;16.90;99.90
20345;DHT22;10330;48.816;9.278;2023-05-27T00:38:47;16.90;99.90
20345;DHT22;10330;48.816;9.278;2023-05-27T00:41:14;16.90;99.90
20345;DHT22;10330;48.816;9.278;2023-05-27T00:43:40;16.90;99.90
20345;DHT22;10330;48.816;9.278;2023-05-27T00:46:07;16.80;99.90
20345;DHT22;10330;48.816;9.278;2023-05-27T00:48:33;16.80;99.90
20345;DHT22;10330;48.816;9.278;2023-05-27T00:51:00;16.80;99.90
20345;DHT22;10330;48.816;9.278;2023-05-27T00:53:27;16.70;99.90
20345;DHT22;10330;48.816;9.278;2023-05-27T00:55:53;16.80;99.90
20345;DHT22;10330;48.816;9.278;2023-05-27T00:58:20;16.70;99.90
20345;DHT22;10330;48.816;9.278;2023-05-27T01:00:48;16.70;99.90
20345;DHT22;10330;48.816;9.278;2023-05-27T01:03:14;16.70;99.90
20345;DHT22;10330;48.816;9.278;2023-05-27T01:05:41;16.70;99.90
20345;DHT22;10330;48.816;9.278;2023-05-27T01:08:21;16.60;99.90
20345;DHT22;10330;48.816;9.278;2023-05-27T01:10:52;16.60;99.90
20345;DHT22;10330;48.816;9.278;2023-05-27T01:13:39;16.60;99.90
20345;DHT22;10330;48.816;9.278;2023-05-27T01:16:11;16.50;99.90
20345;DHT22;10330;48.816;9.278;2023-05-27T01:18:39;16.40;99.90
20345;DHT22;10330;48.816;9.278;2023-05-27T01:21:11;16.30;99.90
20345;DHT22;10330;48.816;9.278;2023-05-27T01:23:41;16.30;99.90
20345;DHT22;10330;48.816;9.278;2023-05-27T01:26:08;16.30;99.90
20345;DHT22;10330;48.816;9.278;2023-05-27T01:28:35;16.30;99.90
20345;DHT22;10330;48.816;9.278;2023-05-27T01:31:12;16.20;99.90
20345;DHT22;10330;48.816;9.278;2023-05-27T01:33:44;16.20;99.90
20345;DHT22;10330;48.816;9.278;2023-05-27T01:36:16;16.10;99.90
20345;DHT22;10330;48.816;9.278;2023-05-27T01:38:46;16.10;99.90
20345;DHT22;10330;48.816;9.278;2023-05-27T01:41:14;16.00;99.90
20345;DHT22;10330;48.816;9.278;2023-05-27T01:43:43;15.90;99.90
20345;DHT22;10330;48.816;9.278;2023-05-27T01:46:09;15.90;99.90
20345;DHT22;10330;48.816;9.278;2023-05-27T01:48:37;15.90;99.90
20345;DHT22;10330;48.816;9.278;2023-05-27T01:51:03;15.80;99.90
20345;DHT22;10330;48.816;9.278;2023-05-27T01:53:29;15.70;99.90
20345;DHT22;10330;48.816;9.278;2023-05-27T01:55:55;15.70;99.90
20345;DHT22;10330;48.816;9.278;2023-05-27T01:58:22;15.70;99.90
20345;DHT22;10330;48.816;9.278;2023-05-27T02:00:48;15.60;99.90
20345;DHT22;10330;48.816;9.278;2023-05-27T02:03:14;15.60;99.90
20345;DHT22;10330;48.816;9.278;2023-05-27T02:05:40;15.60;99.90
20345;DHT22;10330;48.816;9.278;2023-05-27T02:08:08;15.50;99.90
20345;DHT22;10330;48.816;9.278;2023-05-27T02:10:35;15.40;99.90
20345;DHT22;10330;48.816;9.278;2023-05-27T02:13:01;15.40;99.90
20345;DHT22;10330;48.816;9.278;2023-05-27T02:15:28;15.40;99.90
20345;DHT22;10330;48.816;9.278;2023-05-27T02:17:56;15.30;99.90
20345;DHT22;10330;48.816;9.278;2023-05-27T02:20:22;15.30;99.90
20345;DHT22;10330;48.816;9.278;2023-05-27T02:22:51;15.30;99.90
20345;DHT22;10330;48.816;9.278;2023-05-27T02:25:18;15.20;99.90
20345;DHT22;10330;48.816;9.278;2023-05-27T02:27:44;15.20;99.90
20345;DHT22;10330;48.816;9.278;2023-05-27T02:30:15;15.20;99.90
20345;DHT22;10330;48.816;9.278;2023-05-27T02:32:41;15.20;99.90
20345;DHT22;10330;48.816;9.278;2023-05-27T02:35:08;15.10;99.90
20345;DHT22;10330;48.816;9.278;2023-05-27T02:37:34;15.10;99.90
20345;DHT22;10330;48.816;9.278;2023-05-27T02:40:01;15.00;99.90
20345;DHT22;10330;48.816;9.278;2023-05-27T02:42:27;15.00;99.90
20345;DHT22;10330;48.816;9.278;2023-05-27T02:44:53;14.90;99.90
20345;DHT22;10330;48.816;9.278;2023-05-27T02:47:20;14.90;99.90
20345;DHT22;10330;48.816;9.278;2023-05-27T02:49:46;14.90;99.90
20345;DHT22;10330;48.816;9.278;2023-05-27T02:52:12;14.90;99.90
20345;DHT22;10330;48.816;9.278;2023-05-27T02:54:38;14.80;99.90
20345;DHT22;10330;48.816;9.278;2023-05-27T02:57:04;14.80;99.90
20345;DHT22;10330;48.816;9.278;2023-05-27T02:59:31;14.70;99.90
20345;DHT22;10330;48.816;9.278;2023-05-27T03:01:57;14.80;99.90
20345;DHT22;10330;48.816;9.278;2023-05-27T03:04:23;14.70;99.90
20345;DHT22;10330;48.816;9.278;2023-05-27T03:06:49;14.60;99.90
20345;DHT22;10330;48.816;9.278;2023-05-27T03:09:15;14.60;99.90
20345;DHT22;10330;48.816;9.278;2023-05-27T03:11:43;14.50;99.90
20345;DHT22;10330;48.816;9.278;2023-05-27T03:14:10;14.50;99.90
20345;DHT22;10330;48.816;9.278;2023-05-27T03:16:36;14.50;99.90
20345;DHT22;10330;48.816;9.278;2023-05-27T03:19:03;14.40;99.90
20345;DHT22;10330;48.816;9.278;2023-05-27T03:21:33;14.40;99.90
20345;DHT22;10330;48.816;9.278;2023-05-27T03:23:59;14.40;99.90
20345;DHT22;10330;48.816;9.278;2023-05-27T03:26:25;14.30;99.90
20345;DHT22;10330;48.816;9.278;2023-05-27T03:28:54;14.30;99.90
20345;DHT22;10330;48.816;9.278;2023-05-27T03:31:20;14.20;99.90
20345;DHT22;10330;48.816;9.278;2023-05-27T03:33:55;14.10;99.90
20345;DHT22;10330;48.816;9.278;2023-05-27T03:36:22;14.10;99.90
20345;DHT22;10330;48.816;9.278;2023-05-27T03:38:49;14.00;99.90
20345;DHT22;10330;48.816;9.278;2023-05-27T03:41:16;14.10;99.90
20345;DHT22;10330;48.816;9.278;2023-05-27T03:43:43;14.00;99.90
20345;DHT22;10330;48.816;9.278;2023-05-27T03:46:11;14.00;99.90
20345;DHT22;10330;48.816;9.278;2023-05-27T03:48:37;14.00;99.90
20345;DHT22;10330;48.816;9.278;2023-05-27T03:51:03;14.10;99.90
20345;DHT22;10330;48.816;9.278;2023-05-27T03:53:30;14.00;99.90
20345;DHT22;10330;48.816;9.278;2023-05-27T03:55:57;14.00;99.90
20345;DHT22;10330;48.816;9.278;2023-05-27T03:58:23;14.00;99.90
20345;DHT22;10330;48.816;9.278;2023-05-27T04:00:49;14.00;99.90
20345;DHT22;10330;48.816;9.278;2023-05-27T04:03:15;14.00;99.90
20345;DHT22;10330;48.816;9.278;2023-05-27T04:05:42;14.00;99.90
20345;DHT22;10330;48.816;9.278;2023-05-27T04:08:09;14.00;99.90
20345;DHT22;10330;48.816;9.278;2023-05-27T04:10:35;14.00;99.90
20345;DHT22;10330;48.816;9.278;2023-05-27T04:13:01;14.00;99.90
20345;DHT22;10330;48.816;9.278;2023-05-27T04:15:27;14.00;99.90
20345;DHT22;10330;48.816;9.278;2023-05-27T04:17:53;14.00;99.90
20345;DHT22;10330;48.816;9.278;2023-05-27T04:20:19;14.00;99.90
20345;DHT22;10330;48.816;9.278;2023-05-27T04:22:51;14.00;99.90
20345;DHT22;10330;48.816;9.278;2023-05-27T04:25:17;14.00;99.90
20345;DHT22;10330;48.816;9.278;2023-05-27T04:28:19;14.00;99.90
20345;DHT22;10330;48.816;9.278;2023-05-27T04:30:46;14.00;99.90
20345;DHT22;10330;48.816;9.278;2023-05-27T04:33:34;14.00;99.90
20345;DHT22;10330;48.816;9.278;2023-05-27T04:36:01;14.00;99.90
20345;DHT22;10330;48.816;9.278;2023-05-27T04:38:32;14.00;99.90
20345;DHT22;10330;48.816;9.278;2023-05-27T04:41:03;14.10;99.90
20345;DHT22;10330;48.816;9.278;2023-05-27T04:44:02;14.10;99.90
20345;DHT22;10330;48.816;9.278;2023-05-27T04:46:32;14.00;99.90
20345;DHT22;10330;48.816;9.278;2023-05-27T04:48:59;14.00;99.90
20345;DHT22;10330;48.816;9.278;2023-05-27T04:51:26;14.20;99.90
20345;DHT22;10330;48.816;9.278;2023-05-27T04:53:52;14.10;99.90
20345;DHT22;10330;48.816;9.278;2023-05-27T04:56:22;14.10;99.90
20345;DHT22;10330;48.816;9.278;2023-05-27T04:58:50;14.20;99.90
20345;DHT22;10330;48.816;9.278;2023-05-27T05:01:22;14.30;99.90
20345;DHT22;10330;48.816;9.278;2023-05-27T05:04:11;14.30;99.90
20345;DHT22;10330;48.816;9.278;2023-05-27T05:06:43;14.30;99.90
20345;DHT22;10330;48.816;9.278;2023-05-27T05:09:09;14.30;99.90
20345;DHT22;10330;48.816;9.278;2023-05-27T05:11:38;14.30;99.90
20345;DHT22;10330;48.816;9.278;2023-05-27T05:14:04;14.40;99.90
20345;DHT22;10330;48.816;9.278;2023-05-27T05:16:30;14.40;99.90
20345;DHT22;10330;48.816;9.278;2023-05-27T05:18:58;14.40;99.90
20345;DHT22;10330;48.816;9.278;2023-05-27T05:21:27;14.40;99.90
20345;DHT22;10330;48.816;9.278;2023-05-27T05:23:53;14.50;99.90
20345;DHT22;10330;48.816;9.278;2023-05-27T05:26:20;14.50;99.90
20345;DHT22;10330;48.816;9.278;2023-05-27T05:28:46;14.50;99.90
20345;DHT22;10330;48.816;9.278;2023-05-27T05:31:33;14.60;99.90
20345;DHT22;10330;48.816;9.278;2023-05-27T05:34:00;14.60;99.90
20345;DHT22;10330;48.816;9.278;2023-05-27T05:36:27;14.70;99.90
20345;DHT22;10330;48.816;9.278;2023-05-27T05:38:59;14.80;99.90
20345;DHT22;10330;48.816;9.278;2023-05-27T05:41:26;14.80;99.90
20345;DHT22;10330;48.816;9.278;2023-05-27T05:43:53;14.90;99.90
20345;DHT22;10330;48.816;9.278;2023-05-27T05:46:19;15.00;99.90
20345;DHT22;10330;48.816;9.278;2023-05-27T05:48:45;15.00;99.90
20345;DHT22;10330;48.816;9.278;2023-05-27T05:51:16;15.00;99.90
20345;DHT22;10330;48.816;9.278;2023-05-27T05:53:46;15.10;99.90
20345;DHT22;10330;48.816;9.278;2023-05-27T05:56:12;15.20;99.90
20345;DHT22;10330;48.816;9.278;2023-05-27T05:58:39;15.20;99.90
20345;DHT22;10330;48.816;9.278;2023-05-27T06:01:15;15.30;99.90
20345;DHT22;10330;48.816;9.278;2023-05-27T06:03:43;15.50;99.90
20345;DHT22;10330;48.816;9.278;2023-05-27T06:06:18;15.40;99.90
20345;DHT22;10330;48.816;9.278;2023-05-27T06:09:06;15.50;99.90
20345;DHT22;10330;48.816;9.278;2023-05-27T06:11:32;15.60;99.90
20345;DHT22;10330;48.816;9.278;2023-05-27T06:13:59;15.70;99.90
20345;DHT22;10330;48.816;9.278;2023-05-27T06:16:25;15.70;99.90
20345;DHT22;10330;48.816;9.278;2023-05-27T06:18:51;15.80;99.90
20345;DHT22;10330;48.816;9.278;2023-05-27T06:21:18;15.70;99.90
20345;DHT22;10330;48.816;9.278;2023-05-27T06:24:04;15.80;99.90
20345;DHT22;10330;48.816;9.278;2023-05-27T06:26:39;15.90;99.90
20345;DHT22;10330;48.816;9.278;2023-05-27T06:29:06;15.90;99.90
20345;DHT22;10330;48.816;9.278;2023-05-27T06:31:32;16.00;99.90
20345;DHT22;10330;48.816;9.278;2023-05-27T06:33:59;16.10;99.90
20345;DHT22;10330;48.816;9.278;2023-05-27T06:36:26;16.20;99.90
20345;DHT22;10330;48.816;9.278;2023-05-27T06:38:53;16.20;99.90
20345;DHT22;10330;48.816;9.278;2023-05-27T06:41:19;16.30;99.90
20345;DHT22;10330;48.816;9.278;2023-05-27T06:44:03;16.30;99.90
20345;DHT22;10330;48.816;9.278;2023-05-27T06:46:42;16.40;99.90
20345;DHT22;10330;48.816;9.278;2023-05-27T06:49:16;16.40;99.90
20345;DHT22;10330;48.816;9.278;2023-05-27T06:51:48;16.50;99.90
20345;DHT22;10330;48.816;9.278;2023-05-27T06:54:15;16.50;99.90
20345;DHT22;10330;48.816;9.278;2023-05-27T06:56:43;16.50;99.90
20345;DHT22;10330;48.816;9.278;2023-05-27T06:59:30;16.50;99.90
20345;DHT22;10330;48.816;9.278;2023-05-27T07:01:56;16.60;99.90
20345;DHT22;10330;48.816;9.278;2023-05-27T07:04:22;16.60;99.90
20345;DHT22;10330;48.816;9.278;2023-05-27T07:06:57;16.60;99.90
20345;DHT22;10330;48.816;9.278;2023-05-27T07:09:24;16.70;99.90
20345;DHT22;10330;48.816;9.278;2023-05-27T07:11:51;16.80;99.90
20345;DHT22;10330;48.816;9.278;2023-05-27T07:14:43;16.80;99.90
20345;DHT22;10330;48.816;9.278;2023-05-27T07:17:10;16.80;99.90
20345;DHT22;10330;48.816;9.278;2023-05-27T07:19:36;16.90;99.90
20345;DHT22;10330;48.816;9.278;2023-05-27T07:22:07;17.10;99.90
20345;DHT22;10330;48.816;9.278;2023-05-27T07:24:33;17.20;99.90
20345;DHT22;10330;48.816;9.278;2023-05-27T07:26:59;17.20;99.90
20345;DHT22;10330;48.816;9.278;2023-05-27T07:29:28;17.30;99.90
20345;DHT22;10330;48.816;9.278;2023-05-27T07:32:20;17.40;99.90
20345;DHT22;10330;48.816;9.278;2023-05-27T07:34:48;17.50;99.90
20345;DHT22;10330;48.816;9.278;2023-05-27T07:37:14;17.70;99.90
20345;DHT22;10330;48.816;9.278;2023-05-27T07:39:40;17.80;99.90
20345;DHT22;10330;48.816;9.278;2023-05-27T07:42:08;17.90;99.90
20345;DHT22;10330;48.816;9.278;2023-05-27T07:44:37;18.00;99.90
20345;DHT22;10330;48.816;9.278;2023-05-27T07:47:04;18.10;99.90
20345;DHT22;10330;48.816;9.278;2023-05-27T07:49:31;18.10;99.90
20345;DHT22;10330;48.816;9.278;2023-05-27T07:52:17;18.10;99.90
20345;DHT22;10330;48.816;9.278;2023-05-27T07:54:44;18.20;99.90
20345;DHT22;10330;48.816;9.278;2023-05-27T07:57:10;18.30;99.90
20345;DHT22;10330;48.816;9.278;2023-05-27T07:59:36;18.40;99.90
20345;DHT22;10330;48.816;9.278;2023-05-27T08:02:03;18.40;99.90
20345;DHT22;10330;48.816;9.278;2023-05-27T08:04:29;18.50;99.90
20345;DHT22;10330;48.816;9.278;2023-05-27T08:07:14;18.60;99.90
20345;DHT22;10330;48.816;9.278;2023-05-27T08:09:52;18.70;99.90
20345;DHT22;10330;48.816;9.278;2023-05-27T08:12:53;18.60;99.90
20345;DHT22;10330;48.816;9.278;2023-05-27T08:15:31;18.60;99.90
20345;DHT22;10330;48.816;9.278;2023-05-27T08:18:20;18.70;99.90
20345;DHT22;10330;48.816;9.278;2023-05-27T08:21:03;18.80;99.90
20345;DHT22;10330;48.816;9.278;2023-05-27T08:23:45;18.90;99.90
20345;DHT22;10330;48.816;9.278;2023-05-27T08:26:43;18.80;99.90
20345;DHT22;10330;48.816;9.278;2023-05-27T08:29:20;18.90;99.90
20345;DHT22;10330;48.816;9.278;2023-05-27T08:32:06;19.10;99.90
20345;DHT22;10330;48.816;9.278;2023-05-27T08:34:33;19.20;99.90
20345;DHT22;10330;48.816;9.278;2023-05-27T08:36:59;19.20;99.90
20345;DHT22;10330;48.816;9.278;2023-05-27T08:39:28;19.30;99.90
20345;DHT22;10330;48.816;9.278;2023-05-27T08:42:12;19.40;99.90
20345;DHT22;10330;48.816;9.278;2023-05-27T08:44:39;19.50;99.90
20345;DHT22;10330;48.816;9.278;2023-05-27T08:47:07;19.60;99.90
20345;DHT22;10330;48.816;9.278;2023-05-27T08:49:34;19.70;99.90
20345;DHT22;10330;48.816;9.278;2023-05-27T08:52:01;19.80;99.90
20345;DHT22;10330;48.816;9.278;2023-05-27T08:54:29;19.80;99.90
20345;DHT22;10330;48.816;9.278;2023-05-27T08:56:59;19.90;99.90
20345;DHT22;10330;48.816;9.278;2023-05-27T08:59:27;20.00;99.90
20345;DHT22;10330;48.816;9.278;2023-05-27T09:01:55;20.10;99.90
20345;DHT22;10330;48.816;9.278;2023-05-27T09:04:22;20.20;99.90
20345;DHT22;10330;48.816;9.278;2023-05-27T09:06:48;20.20;99.90
20345;DHT22;10330;48.816;9.278;2023-05-27T09:09:14;20.30;99.90
20345;DHT22;10330;48.816;9.278;2023-05-27T09:11:42;20.40;99.90
20345;DHT22;10330;48.816;9.278;2023-05-27T09:14:11;20.50;99.90
20345;DHT22;10330;48.816;9.278;2023-05-27T09:16:42;20.50;99.90
20345;DHT22;10330;48.816;9.278;2023-05-27T09:19:18;20.50;99.90
20345;DHT22;10330;48.816;9.278;2023-05-27T09:21:45;20.70;99.90
20345;DHT22;10330;48.816;9.278;2023-05-27T09:24:11;20.70;99.90
20345;DHT22;10330;48.816;9.278;2023-05-27T09:26:38;20.80;99.90
20345;DHT22;10330;48.816;9.278;2023-05-27T09:29:08;20.80;99.90
20345;DHT22;10330;48.816;9.278;2023-05-27T09:31:41;20.90;99.90
20345;DHT22;10330;48.816;9.278;2023-05-27T09:34:15;21.00;99.90
20345;DHT22;10330;48.816;9.278;2023-05-27T09:36:46;21.10;99.90
20345;DHT22;10330;48.816;9.278;2023-05-27T09:39:19;21.10;99.90
20345;DHT22;10330;48.816;9.278;2023-05-27T09:41:55;21.20;99.90
20345;DHT22;10330;48.816;9.278;2023-05-27T09:44:29;21.20;99.90
20345;DHT22;10330;48.816;9.278;2023-05-27T09:46:57;21.30;99.90
20345;DHT22;10330;48.816;9.278;2023-05-27T09:49:25;21.40;99.90
20345;DHT22;10330;48.816;9.278;2023-05-27T09:51:54;21.50;99.90
20345;DHT22;10330;48.816;9.278;2023-05-27T09:54:23;21.50;99.90
20345;DHT22;10330;48.816;9.278;2023-05-27T09:56:51;21.50;99.90
20345;DHT22;10330;48.816;9.278;2023-05-27T09:59:18;21.60;99.90
20345;DHT22;10330;48.816;9.278;2023-05-27T10:01:48;21.60;99.90
20345;DHT22;10330;48.816;9.278;2023-05-27T10:04:16;21.80;99.90
20345;DHT22;10330;48.816;9.278;2023-05-27T10:06:44;21.90;99.90
20345;DHT22;10330;48.816;9.278;2023-05-27T10:09:10;22.00;99.90
20345;DHT22;10330;48.816;9.278;2023-05-27T10:11:40;22.00;99.90
20345;DHT22;10330;48.816;9.278;2023-05-27T10:14:06;22.20;99.90
20345;DHT22;10330;48.816;9.278;2023-05-27T10:16:34;22.20;99.90
20345;DHT22;10330;48.816;9.278;2023-05-27T10:19:09;22.30;99.90
20345;DHT22;10330;48.816;9.278;2023-05-27T10:21:42;22.40;99.90
20345;DHT22;10330;48.816;9.278;2023-05-27T10:24:10;22.40;99.90
20345;DHT22;10330;48.816;9.278;2023-05-27T10:26:41;22.60;99.90
20345;DHT22;10330;48.816;9.278;2023-05-27T10:29:13;22.60;99.90
20345;DHT22;10330;48.816;9.278;2023-05-27T10:31:49;22.70;99.90
20345;DHT22;10330;48.816;9.278;2023-05-27T10:34:16;22.70;99.90
20345;DHT22;10330;48.816;9.278;2023-05-27T10:36:44;22.60;99.90
20345;DHT22;10330;48.816;9.278;2023-05-27T10:39:15;22.60;99.90
20345;DHT22;10330;48.816;9.278;2023-05-27T10:41:43;22.70;99.90
20345;DHT22;10330;48.816;9.278;2023-05-27T10:44:10;22.80;99.90
20345;DHT22;10330;48.816;9.278;2023-05-27T10:46:43;22.80;99.90
20345;DHT22;10330;48.816;9.278;2023-05-27T10:49:14;22.90;99.90
20345;DHT22;10330;48.816;9.278;2023-05-27T10:51:50;23.00;99.90
20345;DHT22;10330;48.816;9.278;2023-05-27T10:54:26;23.00;99.90
20345;DHT22;10330;48.816;9.278;2023-05-27T10:56:53;23.20;99.90
20345;DHT22;10330;48.816;9.278;2023-05-27T10:59:20;23.40;99.90
20345;DHT22;10330;48.816;9.278;2023-05-27T11:01:53;23.60;99.90
20345;DHT22;10330;48.816;9.278;2023-05-27T11:04:20;23.60;99.90
20345;DHT22;10330;48.816;9.278;2023-05-27T11:07:00;23.70;99.90
20345;DHT22;10330;48.816;9.278;2023-05-27T11:09:26;23.80;99.90
20345;DHT22;10330;48.816;9.278;2023-05-27T11:11:56;24.00;99.90
20345;DHT22;10330;48.816;9.278;2023-05-27T11:14:25;24.20;99.90
20345;DHT22;10330;48.816;9.278;2023-05-27T11:16:51;24.20;99.90
20345;DHT22;10330;48.816;9.278;2023-05-27T11:19:19;24.30;99.90
20345;DHT22;10330;48.816;9.278;2023-05-27T11:21:48;24.30;99.90
20345;DHT22;10330;48.816;9.278;2023-05-27T11:24:16;24.50;99.90
20345;DHT22;10330;48.816;9.278;2023-05-27T11:26:43;24.60;99.90
20345;DHT22;10330;48.816;9.278;2023-05-27T11:42:50;25.10;99.90
20345;DHT22;10330;48.816;9.278;2023-05-27T11:45:38;25.30;99.90
20345;DHT22;10330;48.816;9.278;2023-05-27T11:48:04;25.50;99.90
20345;DHT22;10330;48.816;9.278;2023-05-27T11:50:30;25.60;99.90
20345;DHT22;10330;48.816;9.278;2023-05-27T11:53:01;25.70;99.90
20345;DHT22;10330;48.816;9.278;2023-05-27T11:55:29;25.80;99.90
20345;DHT22;10330;48.816;9.278;2023-05-27T11:57:56;26.00;99.90
20345;DHT22;10330;48.816;9.278;2023-05-27T12:00:22;26.20;99.90
20345;DHT22;10330;48.816;9.278;2023-05-27T12:02:49;26.50;99.90
20345;DHT22;10330;48.816;9.278;2023-05-27T12:05:15;26.50;99.80
20345;DHT22;10330;48.816;9.278;2023-05-27T12:07:42;26.90;99.90
20345;DHT22;10330;48.816;9.278;2023-05-27T12:10:10;26.90;98.90
20345;DHT22;10330;48.816;9.278;2023-05-27T12:12:36;27.00;97.50
20345;DHT22;10330;48.816;9.278;2023-05-27T12:15:04;27.20;97.10
20345;DHT22;10330;48.816;9.278;2023-05-27T12:17:30;27.80;97.90
20345;DHT22;10330;48.816;9.278;2023-05-27T12:20:00;28.30;96.90
20345;DHT22;10330;48.816;9.278;2023-05-27T12:22:26;28.90;97.40
20345;DHT22;10330;48.816;9.278;2023-05-27T12:24:52;29.60;95.80
20345;DHT22;10330;48.816;9.278;2023-05-27T12:27:19;30.10;93.30
20345;DHT22;10330;48.816;9.278;2023-05-27T12:29:46;30.60;93.00
20345;DHT22;10330;48.816;9.278;2023-05-27T12:32:12;30.80;91.90
20345;DHT22;10330;48.816;9.278;2023-05-27T12:34:38;31.00;91.30
20345;DHT22;10330;48.816;9.278;2023-05-27T12:37:05;31.20;92.00
20345;DHT22;10330;48.816;9.278;2023-05-27T12:39:31;31.30;90.80
20345;DHT22;10330;48.816;9.278;2023-05-27T12:41:57;31.70;90.20
20345;DHT22;10330;48.816;9.278;2023-05-27T12:44:23;31.60;87.30
20345;DHT22;10330;48.816;9.278;2023-05-27T12:46:53;31.50;82.60
20345;DHT22;10330;48.816;9.278;2023-05-27T12:49:24;31.70;88.10
20345;DHT22;10330;48.816;9.278;2023-05-27T12:51:51;31.70;84.50
20345;DHT22;10330;48.816;9.278;2023-05-27T12:54:46;32.00;82.50
20345;DHT22;10330;48.816;9.278;2023-05-27T12:57:13;32.00;78.50
20345;DHT22;10330;48.816;9.278;2023-05-27T12:59:40;31.80;78.90
20345;DHT22;10330;48.816;9.278;2023-05-27T13:02:09;32.20;83.40
20345;DHT22;10330;48.816;9.278;2023-05-27T13:04:36;32.10;78.80
20345;DHT22;10330;48.816;9.278;2023-05-27T13:07:02;32.20;84.10
20345;DHT22;10330;48.816;9.278;2023-05-27T13:09:29;32.00;82.00
20345;DHT22;10330;48.816;9.278;2023-05-27T13:11:59;32.00;81.00
20345;DHT22;10330;48.816;9.278;2023-05-27T13:14:25;32.20;83.30
20345;DHT22;10330;48.816;9.278;2023-05-27T13:16:52;32.20;82.10
20345;DHT22;10330;48.816;9.278;2023-05-27T13:19:23;32.30;82.00
20345;DHT22;10330;48.816;9.278;2023-05-27T13:21:52;32.30;78.70
20345;DHT22;10330;48.816;9.278;2023-05-27T13:24:24;32.40;81.20
20345;DHT22;10330;48.816;9.278;2023-05-27T13:26:53;32.20;78.70
20345;DHT22;10330;48.816;9.278;2023-05-27T13:29:20;32.50;79.50
20345;DHT22;10330;48.816;9.278;2023-05-27T13:31:49;32.40;79.00
20345;DHT22;10330;48.816;9.278;2023-05-27T13:34:57;32.40;76.20
20345;DHT22;10330;48.816;9.278;2023-05-27T13:37:39;32.70;77.40
20345;DHT22;10330;48.816;9.278;2023-05-27T13:40:08;32.70;78.30
20345;DHT22;10330;48.816;9.278;2023-05-27T13:45:33;32.80;75.10
20345;DHT22;10330;48.816;9.278;2023-05-27T13:48:17;32.80;76.20
20345;DHT22;10330;48.816;9.278;2023-05-27T13:50:55;32.80;73.20
20345;DHT22;10330;48.816;9.278;2023-05-27T13:53:28;32.70;74.30
20345;DHT22;10330;48.816;9.278;2023-05-27T13:56:00;32.90;71.20
20345;DHT22;10330;48.816;9.278;2023-05-27T13:58:29;32.90;71.30
20345;DHT22;10330;48.816;9.278;2023-05-27T14:00:55;33.20;70.30
20345;DHT22;10330;48.816;9.278;2023-05-27T14:03:25;33.20;69.70
20345;DHT22;10330;48.816;9.278;2023-05-27T14:05:51;32.90;66.50
20345;DHT22;10330;48.816;9.278;2023-05-27T14:08:18;33.00;66.70
20345;DHT22;10330;48.816;9.278;2023-05-27T14:10:44;33.20;64.10
20345;DHT22;10330;48.816;9.278;2023-05-27T14:13:15;33.60;66.60
20345;DHT22;10330;48.816;9.278;2023-05-27T14:15:41;34.00;68.40
20345;DHT22;10330;48.816;9.278;2023-05-27T14:18:32;34.20;67.90
20345;DHT22;10330;48.816;9.278;2023-05-27T14:21:16;33.90;61.00
20345;DHT22;10330;48.816;9.278;2023-05-27T14:23:57;33.60;60.20
20345;DHT22;10330;48.816;9.278;2023-05-27T14:27:05;33.90;61.50
20345;DHT22;10330;48.816;9.278;2023-05-27T14:29:32;34.10;59.10
20345;DHT22;10330;48.816;9.278;2023-05-27T14:56:46;35.30;52.80
20345;DHT22;10330;48.816;9.278;2023-05-27T14:59:12;35.10;53.00
20345;DHT22;10330;48.816;9.278;2023-05-27T15:01:39;35.20;53.60
20345;DHT22;10330;48.816;9.278;2023-05-27T15:04:05;35.30;53.60
20345;DHT22;10330;48.816;9.278;2023-05-27T15:06:31;35.40;52.40
20345;DHT22;10330;48.816;9.278;2023-05-27T15:08:57;35.40;56.00
20345;DHT22;10330;48.816;9.278;2023-05-27T15:11:24;35.50;51.70
20345;DHT22;10330;48.816;9.278;2023-05-27T15:13:50;35.50;50.80
20345;DHT22;10330;48.816;9.278;2023-05-27T15:16:16;35.20;50.40
20345;DHT22;10330;48.816;9.278;2023-05-27T15:18:42;35.10;49.60
20345;DHT22;10330;48.816;9.278;2023-05-27T15:21:08;35.50;51.00
20345;DHT22;10330;48.816;9.278;2023-05-27T15:23:34;35.60;50.20
20345;DHT22;10330;48.816;9.278;2023-05-27T15:26:01;35.90;49.70
20345;DHT22;10330;48.816;9.278;2023-05-27T15:28:28;36.00;49.10
20345;DHT22;10330;48.816;9.278;2023-05-27T15:30:54;36.00;47.90
20345;DHT22;10330;48.816;9.278;2023-05-27T15:33:21;36.10;49.20
20345;DHT22;10330;48.816;9.278;2023-05-27T15:35:47;35.90;47.20
20345;DHT22;10330;48.816;9.278;2023-05-27T15:38:14;36.10;49.10
20345;DHT22;10330;48.816;9.278;2023-05-27T15:40:41;36.20;49.10
20345;DHT22;10330;48.816;9.278;2023-05-27T15:43:11;36.30;47.80
20345;DHT22;10330;48.816;9.278;2023-05-27T15:45:39;36.30;49.20
20345;DHT22;10330;48.816;9.278;2023-05-27T15:48:09;36.40;48.70
20345;DHT22;10330;48.816;9.278;2023-05-27T15:50:39;36.40;49.90
20345;DHT22;10330;48.816;9.278;2023-05-27T15:53:06;36.30;47.80
20345;DHT22;10330;48.816;9.278;2023-05-27T15:55:33;36.40;50.00
20345;DHT22;10330;48.816;9.278;2023-05-27T15:58:00;36.60;50.70
20345;DHT22;10330;48.816;9.278;2023-05-27T16:00:26;36.40;49.30
20345;DHT22;10330;48.816;9.278;2023-05-27T16:02:52;36.40;48.50
20345;DHT22;10330;48.816;9.278;2023-05-27T16:05:19;36.00;48.30
20345;DHT22;10330;48.816;9.278;2023-05-27T16:07:45;36.00;49.70
20345;DHT22;10330;48.816;9.278;2023-05-27T16:10:11;36.20;50.10
20345;DHT22;10330;48.816;9.278;2023-05-27T16:12:38;36.30;49.70
20345;DHT22;10330;48.816;9.278;2023-05-27T16:15:04;36.20;48.70
20345;DHT22;10330;48.816;9.278;2023-05-27T16:17:33;36.10;49.30
20345;DHT22;10330;48.816;9.278;2023-05-27T16:19:59;36.10;49.50
20345;DHT22;10330;48.816;9.278;2023-05-27T16:22:25;36.30;49.70
20345;DHT22;10330;48.816;9.278;2023-05-27T16:24:51;36.10;48.60
20345;DHT22;10330;48.816;9.278;2023-05-27T16:27:18;35.90;48.60